createdAt,value
2018-02-11T00:00:34.429Z,78.59
2018-02-11T00:03:02.047Z,78.63
2018-02-11T00:05:29.724Z,77.69
2018-02-11T00:07:57.294Z,78.45
2018-02-11T00:10:24.872Z,78.12
2018-02-11T00:12:52.505Z,77.61
2018-02-11T00:15:20.087Z,77.45
2018-02-11T00:17:47.661Z,77.14
2018-02-11T00:20:15.265Z,77.58
2018-02-11T00:22:42.863Z,77.44
2018-02-11T00:25:10.421Z,77.00
2018-02-11T00:27:38.038Z,76.48
2018-02-11T00:30:05.608Z,76.68
2018-02-11T00:32:33.193Z,77.41
2018-02-11T00:35:01.051Z,77.03
2018-02-11T00:37:34.131Z,77.03
2018-02-11T00:40:01.985Z,77.00
2018-02-11T00:42:30.531Z,77.13
2018-02-11T00:44:58.312Z,77.40
2018-02-11T00:47:25.988Z,77.41
2018-02-11T00:49:53.617Z,77.14
2018-02-11T00:52:21.179Z,77.70
2018-02-11T00:54:48.803Z,78.27
2018-02-11T00:57:16.492Z,78.14
2018-02-11T00:59:44.059Z,77.37
2018-02-11T01:02:11.693Z,78.39
2018-02-11T01:04:39.281Z,78.02
2018-02-11T01:07:06.824Z,77.97
2018-02-11T01:09:34.795Z,78.05
2018-02-11T01:12:02.404Z,77.37
2018-02-11T01:14:29.960Z,78.08
2018-02-11T01:16:57.575Z,77.87
2018-02-11T01:19:25.133Z,77.83
2018-02-11T01:21:53.561Z,78.14
2018-02-11T01:24:21.190Z,77.63
2018-02-11T01:26:48.747Z,77.85
2018-02-11T01:29:16.414Z,78.53
2018-02-11T01:31:45.797Z,77.71
2018-02-11T01:34:13.468Z,77.70
2018-02-11T01:36:41.036Z,78.48
2018-02-11T01:39:08.801Z,77.41
2018-02-11T01:41:36.356Z,77.76
2018-02-11T01:44:03.946Z,78.29
2018-02-11T01:46:31.573Z,77.98
2018-02-11T01:48:59.148Z,78.36
2018-02-11T01:51:26.695Z,77.78
2018-02-11T01:53:54.649Z,77.92
2018-02-11T01:56:22.640Z,77.51
2018-02-11T01:58:50.331Z,77.90
2018-02-11T02:01:17.939Z,78.05
2018-02-11T02:03:45.492Z,78.64
2018-02-11T02:06:13.038Z,77.57
2018-02-11T02:08:40.657Z,77.83
2018-02-11T02:11:08.211Z,77.54
2018-02-11T02:13:35.837Z,77.54
2018-02-11T02:16:03.787Z,77.66
2018-02-11T02:18:31.359Z,77.49
2018-02-11T02:20:58.908Z,77.83
2018-02-11T02:23:26.505Z,77.47
2018-02-11T02:25:54.053Z,77.21
2018-02-11T02:28:21.610Z,77.70
2018-02-11T02:30:49.240Z,78.00
2018-02-11T02:33:16.864Z,77.48
2018-02-11T02:35:44.567Z,77.46
2018-02-11T02:38:14.791Z,77.62
2018-02-11T02:40:42.375Z,77.65
2018-02-11T02:43:09.932Z,77.89
2018-02-11T02:45:37.541Z,77.93
2018-02-11T02:48:05.098Z,77.95
2018-02-11T02:50:32.665Z,78.28
2018-02-11T02:53:00.298Z,77.92
2018-02-11T02:55:27.876Z,78.05
2018-02-11T02:57:55.433Z,78.07
2018-02-11T03:00:23.149Z,78.17
2018-02-11T03:02:50.723Z,78.48
2018-02-11T03:05:19.031Z,78.70
2018-02-11T03:07:46.966Z,79.33
2018-02-11T03:10:14.584Z,79.36
2018-02-11T03:12:42.172Z,79.24
2018-02-11T03:15:09.769Z,78.38
2018-02-11T03:17:37.422Z,78.99
2018-02-11T03:20:05.015Z,79.00
2018-02-11T03:22:32.634Z,79.06
2018-02-11T03:25:00.216Z,79.62
2018-02-11T03:27:27.797Z,79.37
2018-02-11T03:29:55.478Z,79.25
2018-02-11T03:32:23.057Z,79.36
2018-02-11T03:34:52.414Z,79.17
2018-02-11T03:37:20.030Z,79.29
2018-02-11T03:39:47.637Z,78.72
2018-02-11T03:42:15.216Z,79.22
2018-02-11T03:44:43.282Z,78.68
2018-02-11T03:47:10.862Z,78.34
2018-02-11T03:49:38.442Z,78.32
2018-02-11T03:52:06.303Z,78.29
2018-02-11T03:54:33.849Z,78.43
2018-02-11T03:57:01.445Z,78.97
2018-02-11T03:59:29.046Z,78.40
2018-02-11T04:01:56.720Z,78.93
2018-02-11T04:04:24.259Z,77.98
2018-02-11T04:06:51.932Z,78.10
2018-02-11T04:09:19.484Z,78.05
2018-02-11T04:11:47.037Z,77.48
2018-02-11T04:14:16.993Z,77.81
2018-02-11T04:16:44.560Z,77.58
2018-02-11T04:19:12.120Z,77.70
2018-02-11T04:21:39.728Z,77.92
2018-02-11T04:24:07.276Z,77.92
2018-02-11T04:26:34.838Z,77.64
2018-02-11T04:29:02.465Z,77.92
2018-02-11T04:31:30.041Z,78.10
2018-02-11T04:33:57.665Z,76.83
2018-02-11T04:36:25.282Z,78.45
2018-02-11T04:38:52.846Z,77.90
2018-02-11T04:41:20.413Z,78.06
2018-02-11T04:43:48.045Z,78.45
2018-02-11T04:46:15.661Z,78.55
2018-02-11T04:48:43.261Z,78.35
2018-02-11T04:51:10.901Z,78.32
2018-02-11T04:53:38.484Z,78.93
2018-02-11T04:56:06.136Z,78.51
2018-02-11T04:58:34.050Z,78.72
2018-02-11T05:01:01.618Z,79.30
2018-02-11T05:03:29.578Z,78.57
2018-02-11T05:05:57.196Z,78.49
2018-02-11T05:08:24.809Z,79.00
2018-02-11T05:10:52.357Z,79.31
2018-02-11T05:13:20.875Z,78.83
2018-02-11T05:15:48.418Z,79.56
2018-02-11T05:18:15.983Z,79.19
2018-02-11T05:20:43.584Z,79.17
2018-02-11T05:23:11.140Z,79.48
2018-02-11T05:25:38.760Z,79.07
2018-02-11T05:28:06.405Z,79.12
2018-02-11T05:30:33.967Z,79.01
2018-02-11T05:33:01.526Z,79.27
2018-02-11T05:35:29.163Z,78.44
2018-02-11T05:37:56.708Z,79.04
2018-02-11T05:40:24.292Z,78.74
2018-02-11T05:42:51.946Z,79.30
2018-02-11T05:45:19.545Z,78.48
2018-02-11T05:47:47.104Z,78.61
2018-02-11T05:50:14.737Z,79.00
2018-02-11T05:52:42.786Z,77.87
2018-02-11T05:55:10.373Z,78.69
2018-02-11T05:57:37.980Z,78.28
2018-02-11T06:00:05.554Z,77.83
2018-02-11T06:02:33.123Z,78.06
2018-02-11T06:05:01.512Z,77.90
2018-02-11T06:07:29.095Z,78.05
2018-02-11T06:09:56.665Z,77.97
2018-02-11T06:12:24.292Z,77.87
2018-02-11T06:14:51.877Z,77.88
2018-02-11T06:17:19.440Z,77.74
2018-02-11T06:19:47.047Z,78.30
2018-02-11T06:22:15.516Z,77.54
2018-02-11T06:24:43.080Z,77.45
2018-02-11T06:27:10.687Z,77.59
2018-02-11T06:29:38.318Z,77.36
2018-02-11T06:32:05.897Z,76.70
2018-02-11T06:34:33.513Z,76.83
2018-02-11T06:37:01.078Z,76.39
2018-02-11T06:39:28.638Z,76.72
2018-02-11T06:41:56.509Z,76.75
2018-02-11T06:44:24.098Z,76.93
2018-02-11T06:46:51.730Z,75.68
2018-02-11T06:49:19.448Z,76.30
2018-02-11T06:51:49.949Z,75.49
2018-02-11T06:54:18.164Z,75.22
2018-02-11T06:56:45.826Z,74.89
2018-02-11T06:59:13.439Z,74.90
2018-02-11T07:01:41.006Z,74.79
2018-02-11T07:04:08.689Z,75.21
2018-02-11T07:06:36.369Z,74.08
2018-02-11T07:09:03.982Z,74.51
2018-02-11T07:11:31.806Z,73.67
2018-02-11T07:13:59.369Z,73.03
2018-02-11T07:16:26.965Z,73.02
2018-02-11T07:18:54.601Z,72.81
2018-02-11T07:21:22.229Z,72.27
2018-02-11T07:23:49.837Z,73.43
2018-02-11T07:26:17.461Z,73.10
2018-02-11T07:28:45.044Z,73.04
2018-02-11T07:31:12.612Z,72.88
2018-02-11T07:33:40.219Z,71.50
2018-02-11T07:36:07.781Z,72.48
2018-02-11T07:38:35.344Z,72.11
2018-02-11T07:41:03.035Z,71.28
2018-02-11T07:43:30.614Z,71.08
2018-02-11T07:45:58.165Z,70.90
2018-02-11T07:48:25.808Z,71.09
2018-02-11T07:50:53.374Z,70.96
2018-02-11T07:53:20.996Z,70.69
2018-02-11T07:55:48.642Z,69.74
2018-02-11T07:58:16.195Z,69.74
2018-02-11T08:00:43.786Z,70.37
2018-02-11T08:03:11.678Z,70.09
2018-02-11T08:05:39.245Z,70.04
2018-02-11T08:08:07.084Z,70.04
2018-02-11T08:10:34.725Z,69.92
2018-02-11T08:13:02.276Z,70.32
2018-02-11T08:15:29.953Z,70.46
2018-02-11T08:17:57.576Z,70.20
2018-02-11T08:20:25.194Z,70.00
2018-02-11T08:22:52.826Z,68.77
2018-02-11T08:25:20.454Z,69.10
2018-02-11T08:27:48.045Z,69.51
2018-02-11T08:30:16.139Z,69.65
2018-02-11T08:32:44.061Z,68.73
2018-02-11T08:35:11.624Z,69.73
2018-02-11T08:37:39.295Z,69.83
2018-02-11T08:40:06.921Z,68.85
2018-02-11T08:42:34.538Z,69.28
2018-02-11T08:45:02.173Z,68.59
2018-02-11T08:47:29.846Z,68.32
2018-02-11T08:49:57.409Z,67.53
2018-02-11T08:52:25.038Z,67.72
2018-02-11T08:54:52.720Z,68.07
2018-02-11T08:57:20.292Z,67.81
2018-02-11T08:59:47.883Z,66.61
2018-02-11T09:02:15.532Z,67.47
2018-02-11T09:04:43.115Z,66.37
2018-02-11T09:07:10.862Z,66.45
2018-02-11T09:09:38.910Z,65.90
2018-02-11T09:12:06.530Z,66.38
2018-02-11T09:14:34.093Z,66.02
2018-02-11T09:17:01.790Z,65.85
2018-02-11T09:19:29.329Z,66.59
2018-02-11T09:21:56.891Z,66.51
2018-02-11T09:24:24.595Z,66.52
2018-02-11T09:26:52.186Z,65.83
2018-02-11T09:29:19.748Z,66.08
2018-02-11T09:31:47.354Z,65.88
2018-02-11T09:34:14.911Z,64.71
2018-02-11T09:36:42.473Z,65.62
2018-02-11T09:39:10.099Z,65.41
2018-02-11T09:41:37.673Z,66.32
2018-02-11T09:44:05.259Z,65.27
2018-02-11T09:46:33.232Z,66.64
2018-02-11T09:49:00.796Z,65.59
2018-02-11T09:51:28.372Z,66.64
2018-02-11T09:53:56.069Z,66.75
2018-02-11T09:56:23.627Z,65.74
2018-02-11T09:58:51.189Z,66.23
2018-02-11T10:01:18.821Z,66.71
2018-02-11T10:03:46.408Z,67.62
2018-02-11T10:06:14.118Z,66.94
2018-02-11T10:08:41.755Z,66.68
2018-02-11T10:11:09.461Z,67.50
2018-02-11T10:13:37.046Z,67.26
2018-02-11T10:16:04.724Z,67.76
2018-02-11T10:18:32.280Z,67.39
2018-02-11T10:20:59.870Z,68.24
2018-02-11T10:23:27.839Z,67.64
2018-02-11T10:25:56.073Z,68.09
2018-02-11T10:28:23.677Z,67.99
2018-02-11T10:30:51.307Z,68.49
2018-02-11T10:33:18.943Z,67.93
2018-02-11T10:35:46.510Z,67.80
2018-02-11T10:38:14.123Z,67.68
2018-02-11T10:40:41.697Z,68.50
2018-02-11T10:43:09.273Z,68.78
2018-02-11T10:45:37.338Z,69.20
2018-02-11T10:48:05.461Z,69.38
2018-02-11T10:50:33.087Z,69.11
2018-02-11T10:53:00.784Z,69.32
2018-02-11T10:55:28.344Z,68.98
2018-02-11T10:57:55.911Z,68.51
2018-02-11T11:00:23.545Z,68.79
2018-02-11T11:02:51.206Z,68.77
2018-02-11T11:05:18.752Z,68.05
2018-02-11T11:07:46.355Z,67.94
2018-02-11T11:10:13.934Z,67.61
2018-02-11T11:12:41.533Z,67.79
2018-02-11T11:15:09.128Z,67.20
2018-02-11T11:17:36.688Z,66.74
2018-02-11T11:20:04.276Z,67.65
2018-02-11T11:22:31.933Z,67.83
2018-02-11T11:24:59.550Z,67.76
2018-02-11T11:27:27.133Z,67.95
2018-02-11T11:29:54.965Z,67.77
2018-02-11T11:32:22.551Z,68.25
2018-02-11T11:34:50.125Z,68.01
2018-02-11T11:37:17.727Z,68.85
2018-02-11T11:39:45.313Z,68.94
2018-02-11T11:42:12.881Z,69.11
2018-02-11T11:44:40.491Z,69.77
2018-02-11T11:47:08.077Z,69.78
2018-02-11T11:49:35.626Z,70.04
2018-02-11T11:52:03.347Z,70.64
2018-02-11T11:54:32.512Z,69.38
2018-02-11T11:57:00.129Z,68.94
2018-02-11T11:59:27.774Z,70.54
2018-02-11T12:01:55.394Z,69.94
2018-02-11T12:04:22.985Z,70.45
2018-02-11T12:06:50.605Z,69.80
2018-02-11T12:09:18.156Z,69.39
2018-02-11T12:11:46.056Z,70.11
2018-02-11T12:14:13.780Z,70.60
2018-02-11T12:16:41.415Z,70.52
2018-02-11T12:19:09.029Z,70.34
2018-02-11T12:21:36.653Z,70.55
2018-02-11T12:24:04.238Z,71.11
2018-02-11T12:26:31.832Z,70.73
2018-02-11T12:28:59.451Z,71.47
2018-02-11T12:31:27.030Z,71.77
2018-02-11T12:33:54.589Z,71.21
2018-02-11T12:36:22.447Z,72.72
2018-02-11T12:38:50.000Z,71.76
2018-02-11T12:41:17.635Z,71.82
2018-02-11T12:43:45.265Z,72.43
2018-02-11T12:46:12.826Z,72.35
2018-02-11T12:48:40.388Z,70.96
2018-02-11T12:51:08.000Z,70.86
2018-02-11T12:53:35.625Z,71.25
2018-02-11T12:56:03.181Z,70.53
2018-02-11T12:58:30.822Z,71.03
2018-02-11T13:00:58.741Z,70.99
2018-02-11T13:03:26.338Z,70.94
2018-02-11T13:05:53.952Z,71.03
2018-02-11T13:08:21.515Z,70.46
2018-02-11T13:10:49.109Z,70.18
2018-02-11T13:13:16.830Z,70.26
2018-02-11T13:15:44.559Z,70.42
2018-02-11T13:18:12.120Z,70.14
2018-02-11T13:20:39.819Z,69.42
2018-02-11T13:23:07.432Z,67.97
2018-02-11T13:25:34.992Z,68.73
2018-02-11T13:28:02.649Z,68.62
2018-02-11T13:30:30.237Z,67.10
2018-02-11T13:32:57.849Z,66.96
2018-02-11T13:35:25.485Z,68.15
2018-02-11T13:37:53.100Z,67.78
2018-02-11T13:40:20.687Z,67.63
2018-02-11T13:42:48.423Z,67.97
2018-02-11T13:45:15.992Z,65.93
2018-02-11T13:47:43.540Z,67.68
2018-02-11T13:50:11.195Z,67.86
2018-02-11T13:52:38.810Z,67.15
2018-02-11T13:55:06.376Z,68.51
2018-02-11T13:57:34.037Z,69.48
2018-02-11T14:00:02.494Z,69.36
2018-02-11T14:02:30.053Z,69.66
2018-02-11T14:04:57.679Z,69.75
2018-02-11T14:07:25.237Z,70.25
2018-02-11T14:09:52.801Z,70.64
2018-02-11T14:12:20.440Z,69.32
2018-02-11T14:14:47.999Z,70.13
2018-02-11T14:17:15.675Z,70.71
2018-02-11T14:19:43.311Z,70.51
2018-02-11T14:22:10.906Z,69.94
2018-02-11T14:24:38.496Z,69.48
2018-02-11T14:27:06.135Z,69.61
2018-02-11T14:29:33.723Z,69.27
2018-02-11T14:32:01.306Z,69.89
2018-02-11T14:34:28.951Z,68.45
2018-02-11T14:36:56.581Z,68.26
2018-02-11T14:39:24.387Z,69.65
2018-02-11T14:41:52.245Z,68.05
2018-02-11T14:44:19.813Z,67.96
2018-02-11T14:46:47.393Z,67.44
2018-02-11T14:49:15.004Z,66.91
2018-02-11T14:51:42.581Z,66.32
2018-02-11T14:54:10.154Z,66.88
2018-02-11T14:56:37.829Z,66.37
2018-02-11T14:59:06.234Z,65.87
2018-02-11T15:01:33.815Z,64.71
2018-02-11T15:04:01.706Z,65.38
2018-02-11T15:06:29.289Z,65.85
2018-02-11T15:08:56.844Z,66.32
2018-02-11T15:11:24.533Z,65.74
2018-02-11T15:13:52.118Z,66.79
2018-02-11T15:16:19.701Z,66.77
2018-02-11T15:18:47.416Z,65.93
2018-02-11T15:21:14.984Z,66.65
2018-02-11T15:23:42.626Z,65.10
2018-02-11T15:26:10.243Z,65.28
2018-02-11T15:28:37.840Z,65.53
2018-02-11T15:31:06.080Z,66.06
2018-02-11T15:33:34.252Z,65.82
2018-02-11T15:36:01.841Z,66.27
2018-02-11T15:38:29.408Z,66.28
2018-02-11T15:40:57.008Z,66.43
2018-02-11T15:43:24.585Z,65.85
2018-02-11T15:45:52.156Z,66.14
2018-02-11T15:48:20.042Z,65.87
2018-02-11T15:50:47.626Z,66.61
2018-02-11T15:53:15.195Z,66.30
2018-02-11T15:55:42.914Z,66.13
2018-02-11T15:58:10.481Z,66.80
2018-02-11T16:00:38.068Z,66.33
2018-02-11T16:03:05.823Z,65.62
2018-02-11T16:05:33.504Z,65.21
2018-02-11T16:08:01.066Z,64.53
2018-02-11T16:10:28.707Z,64.97
2018-02-11T16:12:56.264Z,64.89
2018-02-11T16:15:23.849Z,65.56
2018-02-11T16:17:51.515Z,64.81
2018-02-11T16:20:19.186Z,65.54
2018-02-11T16:22:46.770Z,65.15
2018-02-11T16:25:14.659Z,65.22
2018-02-11T16:27:42.230Z,65.06
2018-02-11T16:30:09.893Z,65.18
2018-02-11T16:32:42.222Z,65.19
2018-02-11T16:35:05.139Z,65.46
2018-02-11T16:37:32.774Z,65.60
2018-02-11T16:40:00.991Z,66.31
2018-02-11T16:42:28.568Z,65.94
2018-02-11T16:44:56.156Z,65.78
2018-02-11T16:47:23.826Z,66.11
2018-02-11T16:49:51.432Z,66.22
2018-02-11T16:52:19.018Z,65.23
2018-02-11T16:54:46.669Z,66.07
2018-02-11T16:57:14.249Z,66.29
2018-02-11T16:59:41.827Z,65.64
2018-02-11T17:02:09.789Z,65.19
2018-02-11T17:04:38.110Z,65.15
2018-02-11T17:07:05.690Z,64.97
2018-02-11T17:09:33.300Z,65.05
2018-02-11T17:12:01.042Z,66.12
2018-02-11T17:14:28.619Z,65.17
2018-02-11T17:16:56.234Z,65.52
2018-02-11T17:19:23.816Z,64.44
2018-02-11T17:21:51.459Z,65.10
2018-02-11T17:24:19.147Z,65.39
2018-02-11T17:26:46.839Z,65.62
2018-02-11T17:29:14.404Z,66.03
2018-02-11T17:31:42.044Z,66.55
2018-02-11T17:34:09.646Z,66.62
2018-02-11T17:36:37.293Z,67.14
2018-02-11T17:39:05.003Z,66.95
2018-02-11T17:41:32.585Z,66.93
2018-02-11T17:44:00.196Z,66.87
2018-02-11T17:46:27.889Z,66.82
2018-02-11T17:48:55.530Z,68.23
2018-02-11T17:51:23.116Z,67.16
2018-02-11T17:53:50.773Z,67.59
2018-02-11T17:56:18.585Z,67.31
2018-02-11T17:58:46.166Z,67.05
2018-02-11T18:01:13.808Z,67.75
2018-02-11T18:03:41.478Z,67.39
2018-02-11T18:06:09.827Z,67.42
2018-02-11T18:08:37.483Z,67.53
2018-02-11T18:11:05.051Z,67.93
2018-02-11T18:13:32.626Z,67.70
2018-02-11T18:16:00.492Z,67.19
2018-02-11T18:18:28.093Z,66.91
2018-02-11T18:20:55.677Z,67.28
2018-02-11T18:23:24.249Z,66.92
2018-02-11T18:25:51.835Z,65.37
2018-02-11T18:28:19.462Z,65.73
2018-02-11T18:30:47.127Z,64.84
2018-02-11T18:33:14.681Z,64.62
2018-02-11T18:35:42.272Z,64.82
2018-02-11T18:38:09.946Z,64.87
2018-02-11T18:40:37.503Z,64.53
2018-02-11T18:43:05.066Z,65.31
2018-02-11T18:45:32.703Z,64.90
2018-02-11T18:48:00.255Z,65.38
2018-02-11T18:50:27.823Z,64.72
2018-02-11T18:52:55.445Z,65.15
2018-02-11T18:55:23.017Z,64.77
2018-02-11T18:57:50.625Z,65.11
2018-02-11T19:00:18.250Z,64.98
2018-02-11T19:02:45.881Z,64.65
2018-02-11T19:05:13.565Z,65.39
2018-02-11T19:07:41.875Z,65.19
2018-02-11T19:10:09.524Z,64.78
2018-02-11T19:12:37.088Z,65.02
2018-02-11T19:15:04.741Z,64.81
2018-02-11T19:17:33.126Z,65.10
2018-02-11T19:20:00.819Z,64.46
2018-02-11T19:22:28.501Z,64.79
2018-02-11T19:24:57.190Z,64.58
2018-02-11T19:27:24.838Z,64.15
2018-02-11T19:29:52.518Z,63.80
2018-02-11T19:32:20.954Z,64.52
2018-02-11T19:34:48.535Z,64.80
2018-02-11T19:37:16.152Z,64.56
2018-02-11T19:39:43.733Z,64.76
2018-02-11T19:42:11.415Z,64.13
2018-02-11T19:44:39.063Z,62.87
2018-02-11T19:47:06.644Z,63.40
2018-02-11T19:49:34.227Z,63.63
2018-02-11T19:52:01.842Z,64.13
2018-02-11T19:54:29.487Z,64.88
2018-02-11T19:56:57.057Z,63.94
2018-02-11T19:59:24.710Z,64.51
2018-02-11T20:01:52.292Z,64.58
2018-02-11T20:04:19.931Z,65.57
2018-02-11T20:06:47.551Z,65.68
2018-02-11T20:09:15.194Z,65.49
2018-02-11T20:11:43.196Z,65.31
2018-02-11T20:14:10.901Z,65.89
2018-02-11T20:16:38.538Z,65.29
2018-02-11T20:19:06.205Z,65.30
2018-02-11T20:21:33.855Z,65.76
2018-02-11T20:24:01.420Z,65.24
2018-02-11T20:26:29.476Z,65.26
2018-02-11T20:28:57.118Z,65.78
2018-02-11T20:31:24.775Z,64.95
2018-02-11T20:33:52.384Z,65.71
2018-02-11T20:36:20.012Z,66.25
2018-02-11T20:38:47.575Z,65.53
2018-02-11T20:41:15.149Z,65.88
2018-02-11T20:43:42.793Z,65.73
2018-02-11T20:46:10.371Z,65.25
2018-02-11T20:48:37.973Z,65.30
2018-02-11T20:51:05.886Z,65.19
2018-02-11T20:53:33.481Z,65.33
2018-02-11T20:56:01.138Z,64.80
2018-02-11T20:58:28.871Z,65.01
2018-02-11T21:00:57.053Z,64.98
2018-02-11T21:03:26.681Z,65.64
2018-02-11T21:05:54.477Z,65.76
2018-02-11T21:08:22.109Z,65.86
2018-02-11T21:10:49.725Z,65.92
2018-02-11T21:13:18.176Z,65.76
2018-02-11T21:15:45.830Z,65.86
2018-02-11T21:18:13.406Z,66.10
2018-02-11T21:20:41.365Z,66.12
2018-02-11T21:23:08.927Z,65.73
2018-02-11T21:25:36.518Z,65.74
2018-02-11T21:28:04.337Z,66.10
2018-02-11T21:30:31.911Z,66.35
2018-02-11T21:32:59.488Z,66.37
2018-02-11T21:35:27.100Z,66.34
2018-02-11T21:37:54.791Z,66.41
2018-02-11T21:40:22.460Z,66.66
2018-02-11T21:42:50.106Z,66.67
2018-02-11T21:45:17.693Z,65.59
2018-02-11T21:47:45.277Z,65.28
2018-02-11T21:50:12.943Z,64.95
2018-02-11T21:52:40.536Z,65.59
2018-02-11T21:55:08.124Z,65.45
2018-02-11T21:57:35.977Z,66.07
2018-02-11T22:00:03.547Z,65.92
2018-02-11T22:02:31.139Z,65.77
2018-02-11T22:04:58.837Z,65.34
2018-02-11T22:07:26.428Z,65.36
2018-02-11T22:09:54.045Z,65.49
2018-02-11T22:12:21.673Z,65.19
2018-02-11T22:14:49.248Z,65.76
2018-02-11T22:17:16.870Z,65.64
2018-02-11T22:19:44.524Z,65.94
2018-02-11T22:22:12.096Z,65.95
2018-02-11T22:24:39.680Z,66.24
2018-02-11T22:27:07.296Z,65.73
2018-02-11T22:29:34.990Z,65.02
2018-02-11T22:32:02.572Z,65.15
2018-02-11T22:34:30.446Z,64.97
2018-02-11T22:36:58.388Z,65.69
2018-02-11T22:39:26.611Z,65.35
2018-02-11T22:41:54.217Z,65.58
2018-02-11T22:44:21.789Z,66.43
2018-02-11T22:46:49.379Z,66.25
2018-02-11T22:49:17.054Z,66.43
2018-02-11T22:51:44.640Z,65.88
2018-02-11T22:54:12.287Z,66.33
2018-02-11T22:56:39.924Z,66.73
2018-02-11T22:59:07.502Z,66.52
2018-02-11T23:01:35.060Z,66.19
2018-02-11T23:04:02.763Z,66.96
2018-02-11T23:06:30.343Z,67.94
2018-02-11T23:08:58.291Z,67.63
2018-02-11T23:11:26.168Z,67.80
2018-02-11T23:13:53.751Z,67.61
2018-02-11T23:16:21.377Z,67.23
2018-02-11T23:18:49.078Z,67.62
2018-02-11T23:21:16.906Z,68.00
2018-02-11T23:23:44.471Z,67.91
2018-02-11T23:26:12.092Z,68.41
2018-02-11T23:28:39.679Z,68.55
2018-02-11T23:31:07.349Z,68.12
2018-02-11T23:33:35.029Z,68.20
2018-02-11T23:36:02.662Z,67.87
2018-02-11T23:38:30.715Z,68.09
2018-02-11T23:40:58.360Z,67.52
2018-02-11T23:43:25.928Z,67.67
2018-02-11T23:45:53.584Z,68.31
2018-02-11T23:48:21.283Z,66.16
2018-02-11T23:50:48.873Z,67.87
2018-02-11T23:53:16.471Z,66.96
2018-02-11T23:55:44.100Z,66.66
2018-02-11T23:58:11.700Z,67.26
